Other Surface Observations
Issued by NWS Great Falls, MT

Home | Current Version | Previous Version | Text Only | Print | Product List | Glossary On
Versions: 1 2 3 4 5 6 7 8 9 10 11 12 13 14 15 16 17 18 19 20 21 22 23 24 25 26 27 28 29 30 31 32 33 34 35 36 37 38 39 40 41 42 43 44 45 46 47 48 49 50
000
SXUS55 KTFX 181251
OSOTFX

AREA AWOS OBSERVATIONS
NATIONAL WEATHER SERVICE GREAT FALLS MT
0650 AM MDT Fri Apr 18 2014

METAR K1S3 181245Z AUTO 08005KT 10SM 06/03 A2968
METAR K38S 181245Z AUTO 00000KT 10SM 05/04 A2979
METAR K6S0 181245Z AUTO 00000KT 10SM 06/M02 A2967
METAR K6S5 181245Z AUTO 20007KT 10SM 07/01 A2981
METAR K79S 181245Z AUTO 23003KT 09/06 A2964
METAR K88M 181245Z AUTO 15009G14KT 10SM 07/03 A2969
METAR KEKS 181245Z AUTO 25011G16KT 10SM 07/03 A2979
METAR KPO1 181245Z AUTO 10011KT 10SM 03/M03 A2978
METAR KPWD 181245Z AUTO 12014KT 10SM 01/M02 A2985
METAR KS59 181245Z AUTO 16004KT 10SM 05/02 A2974
METAR KS71 181245Z AUTO 10009KT 10SM 07/06 A2962



USA.gov is the U.S. government's official web portal to all federal, state and local government web resources and services.